This is the latest recevied weather packets stored in our database for station/object OE6JVE-13. If no packets are shown the sender has not sent any weather packets the latest 10 day(s).
| Time | Temp. | Humidity | Pressure | Rain* | Wind** | Luminosity | Snow |
|---|---|---|---|---|---|---|---|
| 1777949718 | 12.78° C | 55% | 1004.6 hPa | 0 mm | - | - | - |
| 1777949126 | 13.33° C | 52% | 1004.7 hPa | 0 mm | - | - | - |
| 1777948534 | 14.44° C | 49% | 1004.7 hPa | 0 mm | - | - | - |
| 1777947942 | 15° C | 46% | 1004.7 hPa | 0 mm | - | - | - |
| 1777947350 | 15° C | 45% | 1004.8 hPa | 0 mm | - | - | - |
| 1777946757 | 15° C | 47% | 1004.8 hPa | 0 mm | - | - | - |
| 1777946165 | 14.44° C | 48% | 1004.8 hPa | 0 mm | - | - | - |
| 1777945573 | 15° C | 48% | 1004.9 hPa | 0 mm | - | - | - |
| 1777944915 | 13.89° C | 50% | 1004.8 hPa | 0 mm | - | - | - |
| 1777944323 | 13.33° C | 53% | 1004.8 hPa | 0 mm | - | - | - |
| 1777943731 | 12.22° C | 59% | 1004.8 hPa | 0 mm | - | - | - |
| 1777943139 | 11.67° C | 64% | 1004.9 hPa | 0 mm | - | - | - |
| 1777942547 | 11.67° C | 64% | 1005 hPa | 0 mm | - | - | - |
| 1777941955 | 11.11° C | 64% | 1005 hPa | 0 mm | - | - | - |
| 1777941363 | 10.56° C | 64% | 1005.2 hPa | 0 mm | - | - | - |
| 1777940771 | 10.56° C | 64% | 1005.2 hPa | 0 mm | - | - | - |
| 1777940178 | 11.11° C | 63% | 1005.3 hPa | 0 mm | - | - | - |
| 1777939521 | 11.11° C | 62% | 1005.3 hPa | 0 mm | - | - | - |
| 1777938929 | 11.11° C | 61% | 1005.4 hPa | 0 mm | - | - | - |
| 1777938337 | 11.67° C | 60% | 1005.4 hPa | 0 mm | - | - | - |
| 1777937745 | 12.22° C | 55% | 1005.4 hPa | 0 mm | - | - | - |
| 1777937153 | 13.33° C | 50% | 1005.4 hPa | 0 mm | - | - | - |
| 1777936561 | 15° C | 45% | 1005.5 hPa | 0 mm | - | - | - |
| 1777935969 | 16.67° C | 37% | 1005.6 hPa | 0 mm | - | - | - |
| 1777935377 | 17.22° C | 33% | 1005.7 hPa | 0 mm | - | - | - |
* Rain latest hour (hover to see other rain measurements)
** Current wind speed in m/s (hover to see current wind gust speed)